Time;durP1;ratioP1;P1;durP2;ratioP2;P2;SDS_P1;SDS_P2;PMS_P1;PMS_P2;Temp;Humidity;BMP_temperature;BMP_pressure;BME280_temperature;BME280_humidity;BME280_pressure;Samples;Min_cycle;Max_cycle;Signal;HPM_P1;HPM_P2
2023/01/17 00:11:17;;;;;;;4.07;1.55;;;;;;;19.61;51.59;93834.63;10584227;28;20507;-57
2023/01/17 00:16:36;;;;;;;3.92;1.92;;;;;;;19.61;51.63;93850.09;10584733;28;20047;-56
2023/01/17 01:34:24;;;;;;;3.10;1.50;;;;;;;19.41;51.27;93898.41;10595461;28;20043;-57
2023/01/17 01:39:44;;;;;;;3.55;1.20;;;;;;;19.40;51.31;93886.81;10581533;28;20081;-56
2023/01/17 01:45:16;;;;;;;3.55;1.50;;;;;;;19.39;51.10;93895.34;10580899;28;20060;-57
2023/01/17 01:50:36;;;;;;;2.40;1.40;;;;;;;19.38;51.29;93897.25;10581302;28;20399;-56
2023/01/17 01:55:55;;;;;;;1.83;1.25;;;;;;;19.36;51.26;93894.94;10565900;28;20059;-56
2023/01/17 02:01:15;;;;;;;2.35;1.30;;;;;;;19.34;51.19;93901.91;10581177;28;20062;-56
2023/01/17 02:06:37;;;;;;;2.38;1.30;;;;;;;19.34;51.33;93907.28;10581030;28;20071;-56
2023/01/17 02:11:57;;;;;;;2.55;1.35;;;;;;;19.33;51.30;93905.78;10594465;28;20055;-57
2023/01/17 02:17:38;;;;;;;2.60;1.30;;;;;;;19.30;51.24;93901.91;10580111;28;20059;-56
2023/01/17 02:23:25;;;;;;;1.77;1.00;;;;;;;19.29;51.15;93905.78;10594313;28;20399;-56
2023/01/17 02:29:12;;;;;;;2.70;1.23;;;;;;;19.27;51.33;93907.34;10580709;28;20419;-57
2023/01/17 02:35:06;;;;;;;2.65;1.40;;;;;;;19.26;51.10;93913.88;10580506;28;20055;-56
2023/01/17 02:40:30;;;;;;;2.00;1.10;;;;;;;19.25;51.08;93906.94;10593880;28;20047;-57
2023/01/17 02:45:49;;;;;;;1.95;0.93;;;;;;;19.23;51.17;93907.34;10564602;28;20062;-57
2023/01/17 02:51:55;;;;;;;2.25;1.10;;;;;;;19.21;51.11;93908.88;10580088;28;20048;-56
2023/01/17 02:57:40;;;;;;;3.45;1.13;;;;;;;19.20;51.12;93908.13;10488561;28;20058;-56
2023/01/17 03:03:15;;;;;;;281.65;50.22;;;;;;;19.19;51.19;93911.22;10572281;28;20063;-56
2023/01/17 03:08:35;;;;;;;1.52;1.10;;;;;;;19.17;51.14;93925.88;10601034;28;20096;-56
2023/01/17 03:13:55;;;;;;;1.10;0.90;;;;;;;19.16;51.18;93923.56;10586629;28;20507;-56
2023/01/17 03:19:15;;;;;;;2.05;1.20;;;;;;;19.15;51.07;93941.69;10586855;28;20052;-56
2023/01/17 03:24:35;;;;;;;1.08;0.95;;;;;;;19.13;51.07;93935.13;10586740;28;20400;-56
2023/01/17 03:29:54;;;;;;;2.40;1.10;;;;;;;19.11;51.10;93940.94;10585903;28;20047;-57
2023/01/17 03:35:14;;;;;;;1.92;1.02;;;;;;;19.10;51.18;93942.06;10586375;28;20516;-56
2023/01/17 03:40:34;;;;;;;1.83;1.00;;;;;;;19.10;51.15;93947.47;10586130;28;20043;-56
2023/01/17 03:46:07;;;;;;;1.35;0.80;;;;;;;19.08;51.08;93955.19;10585618;28;20054;-56
2023/01/17 03:51:28;;;;;;;1.60;0.88;;;;;;;19.07;51.04;93950.97;10569996;28;20127;-56
2023/01/17 03:56:47;;;;;;;1.35;1.02;;;;;;;19.05;51.17;93945.19;10585534;28;20047;-57
2023/01/17 04:02:07;;;;;;;2.30;0.90;;;;;;;19.04;51.16;93948.28;10599064;28;20043;-56
2023/01/17 04:07:26;;;;;;;1.15;0.73;;;;;;;19.04;51.05;93948.28;10584318;28;20503;-56
2023/01/17 04:12:46;;;;;;;2.08;1.08;;;;;;;19.01;51.10;93944.41;10584774;28;20055;-56
2023/01/17 04:18:05;;;;;;;1.42;0.90;;;;;;;19.00;51.06;93948.28;10584390;28;20100;-56
2023/01/17 04:23:25;;;;;;;1.50;1.00;;;;;;;18.99;50.99;93956.75;10568334;28;20055;-57
2023/01/17 04:28:45;;;;;;;1.10;1.00;;;;;;;18.98;51.10;93950.59;10583997;28;20063;-56
2023/01/17 04:34:04;;;;;;;1.38;0.93;;;;;;;18.96;51.16;93944.81;10583958;28;20058;-56
2023/01/17 04:39:23;;;;;;;1.05;0.70;;;;;;;18.96;51.13;93958.31;10583516;28;20097;-57
2023/01/17 04:44:43;;;;;;;1.23;0.70;;;;;;;18.95;50.97;93956.75;10583205;28;20082;-56
2023/01/17 04:50:03;;;;;;;0.70;0.60;;;;;;;18.93;51.10;93967.16;10567977;28;20048;-56
2023/01/17 04:55:22;;;;;;;0.95;0.70;;;;;;;18.91;51.07;93972.19;10583043;28;20044;-56
2023/01/17 05:00:41;;;;;;;1.10;0.88;;;;;;;18.89;50.92;93971.81;10582984;28;20071;-56
2023/01/17 05:06:01;;;;;;;0.95;0.70;;;;;;;18.90;50.96;93978.75;10596294;28;20047;-56
2023/01/17 05:11:21;;;;;;;1.23;0.75;;;;;;;18.88;50.87;93987.22;10581901;28;20056;-55
2023/01/17 05:16:40;;;;;;;1.55;0.90;;;;;;;18.86;51.04;93981.44;10581714;28;20104;-57
2023/01/17 05:22:02;;;;;;;1.67;0.90;;;;;;;18.85;50.98;93989.91;10582101;28;20108;-56
2023/01/17 05:27:21;;;;;;;0.80;0.57;;;;;;;18.85;50.92;93998.78;10581948;28;20055;-56
2023/01/17 05:32:44;;;;;;;1.00;0.70;;;;;;;18.84;51.12;94001.88;10592446;27;20046;-56
2023/01/17 05:38:04;;;;;;;0.88;0.75;;;;;;;18.82;51.09;94006.88;10599064;27;20043;-56
2023/01/17 05:43:23;;;;;;;0.80;0.80;;;;;;;18.81;51.38;94016.13;10602786;27;20050;-56
2023/01/17 05:48:42;;;;;;;0.98;0.77;;;;;;;18.82;51.66;94014.97;10580712;28;20048;-56
2023/01/17 05:54:03;;;;;;;1.98;0.65;;;;;;;18.83;51.81;94022.66;10589543;28;20048;-56
2023/01/17 05:59:23;;;;;;;1.77;0.65;;;;;;;18.83;51.74;94019.97;10599866;28;20040;-56
2023/01/17 06:04:42;;;;;;;1.10;0.93;;;;;;;18.84;52.02;94031.56;10600410;28;20411;-56
2023/01/17 06:10:01;;;;;;;1.08;0.60;;;;;;;18.87;52.15;94047.72;10580915;28;20051;-56
2023/01/17 06:15:20;;;;;;;0.90;0.60;;;;;;;18.87;51.89;94057.75;10585934;28;20059;-56
2023/01/17 06:20:40;;;;;;;2.60;0.60;;;;;;;18.89;52.02;94071.59;10600499;28;20044;-55
2023/01/17 06:26:02;;;;;;;0.75;0.55;;;;;;;18.89;51.95;94071.59;10614570;28;20499;-55
2023/01/17 06:31:23;;;;;;;1.20;0.80;;;;;;;18.91;52.17;94086.25;10626901;27;20061;-57
2023/01/17 06:36:42;;;;;;;1.27;0.77;;;;;;;18.92;51.97;94087.03;10610071;27;20050;-57
2023/01/17 06:42:02;;;;;;;4.10;1.20;;;;;;;18.94;51.99;94090.13;10609869;27;20054;-56
2023/01/17 06:47:21;;;;;;;7.57;1.80;;;;;;;18.95;51.77;94099.75;10587710;28;20055;-56
2023/01/17 06:52:41;;;;;;;9.40;2.47;;;;;;;18.97;51.82;94105.53;10587073;28;20048;-57
2023/01/17 06:58:01;;;;;;;11.75;2.40;;;;;;;18.99;51.69;94108.59;10584606;28;20044;-55
2023/01/17 07:03:23;;;;;;;10.02;2.97;;;;;;;19.01;51.58;94117.09;10582736;28;20499;-56
2023/01/17 07:08:42;;;;;;;8.45;2.78;;;;;;;19.02;51.71;94121.34;10582495;28;20047;-56
2023/01/17 07:14:02;;;;;;;9.63;2.90;;;;;;;19.05;51.67;94127.88;10599552;28;20040;-56
2023/01/17 07:19:22;;;;;;;6.85;2.60;;;;;;;19.06;51.54;94130.19;10586167;28;20499;-56
2023/01/17 07:24:42;;;;;;;11.27;2.95;;;;;;;19.09;51.56;94145.63;10600222;28;20093;-57
2023/01/17 07:30:01;;;;;;;6.72;2.83;;;;;;;19.10;51.69;94141.75;10586515;28;20048;-56
2023/01/17 07:35:21;;;;;;;8.85;2.53;;;;;;;19.12;51.78;94146.78;10586177;28;20044;-57
2023/01/17 07:40:41;;;;;;;9.18;2.65;;;;;;;19.15;51.65;94149.47;10585589;28;20055;-57
2023/01/17 07:46:00;;;;;;;6.68;2.25;;;;;;;19.18;51.57;94147.94;10585459;28;20085;-56
2023/01/17 07:51:19;;;;;;;6.78;2.42;;;;;;;19.22;51.57;94131.75;10585660;28;20055;-57
2023/01/17 07:56:44;;;;;;;6.47;2.20;;;;;;;19.22;51.67;94131.75;10585396;28;20051;-56
2023/01/17 08:02:04;;;;;;;7.63;2.00;;;;;;;19.26;51.48;94144.06;10584591;28;20445;-57
2023/01/17 08:07:23;;;;;;;7.63;2.70;;;;;;;19.27;51.59;94140.22;10585136;28;20144;-56
2023/01/17 08:12:44;;;;;;;5.53;2.20;;;;;;;19.30;51.52;94144.06;10584931;28;20048;-57
2023/01/17 08:18:04;;;;;;;6.65;2.08;;;;;;;19.32;51.69;94147.91;10598184;28;20043;-57
2023/01/17 08:23:24;;;;;;;5.55;1.75;;;;;;;19.35;51.52;94159.91;10584269;28;20063;-57
2023/01/17 08:28:43;;;;;;;5.40;2.22;;;;;;;19.38;51.51;94167.19;10584094;28;20052;-56
2023/01/17 08:34:03;;;;;;;4.75;2.03;;;;;;;19.41;51.44;94173.78;10583795;28;20093;-57
2023/01/17 08:39:23;;;;;;;5.97;1.90;;;;;;;19.43;51.51;94172.22;10583697;28;20047;-57
2023/01/17 08:44:42;;;;;;;5.53;2.15;;;;;;;19.46;51.52;94165.28;10593563;28;20109;-57
2023/01/17 08:50:05;;;;;;;5.25;2.10;;;;;;;19.49;51.45;94173.38;10596836;28;20044;-56
2023/01/17 08:55:25;;;;;;;4.18;2.03;;;;;;;19.51;51.37;94181.09;10582237;28;20254;-57
2023/01/17 09:00:44;;;;;;;4.45;1.85;;;;;;;19.53;51.22;94174.13;10582703;28;20052;-57
2023/01/17 09:06:08;;;;;;;5.53;1.80;;;;;;;19.56;51.11;94184.19;10582700;28;20059;-57
2023/01/17 09:11:28;;;;;;;3.25;1.60;;;;;;;19.58;51.11;94196.50;10596044;28;20069;-57
2023/01/17 09:16:47;;;;;;;3.67;1.52;;;;;;;19.61;51.07;94182.25;10582201;28;20044;-57
2023/01/17 09:22:08;;;;;;;5.47;1.90;;;;;;;19.63;51.11;94198.84;10582207;28;20056;-57
2023/01/17 09:27:28;;;;;;;4.25;1.83;;;;;;;19.66;50.98;94198.03;10581938;28;20052;-57
2023/01/17 09:32:53;;;;;;;3.97;1.77;;;;;;;19.68;50.84;94201.13;10581782;28;20052;-57
2023/01/17 09:38:13;;;;;;;4.63;1.75;;;;;;;19.70;50.87;94199.59;10595069;28;20042;-57
2023/01/17 09:43:43;;;;;;;3.67;1.70;;;;;;;19.71;50.81;94194.97;10581377;28;20449;-56
2023/01/17 09:49:02;;;;;;;3.65;1.50;;;;;;;19.74;50.94;94202.34;10566064;28;20380;-56
2023/01/17 09:54:24;;;;;;;3.75;1.50;;;;;;;19.77;50.73;94203.47;10580980;28;20556;-57
2023/01/17 10:00:15;;;;;;;3.53;1.63;;;;;;;19.79;50.36;94185.72;10565749;28;20044;-57
2023/01/17 10:05:58;;;;;;;3.85;1.88;;;;;;;19.81;50.30;94180.69;10601156;28;20096;-57
2023/01/17 10:11:36;;;;;;;2.35;1.35;;;;;;;19.83;49.98;94183.78;10587953;28;20043;-57
2023/01/17 10:17:15;;;;;;;4.07;1.42;;;;;;;19.87;50.24;94170.25;10589397;28;20062;-56
2023/01/17 10:22:56;;;;;;;2.75;1.42;;;;;;;19.88;50.34;94172.59;10602904;28;20050;-56
2023/01/17 10:28:20;;;;;;;3.15;1.48;;;;;;;19.91;50.10;94181.81;10589030;28;20117;-56
2023/01/17 10:33:44;;;;;;;2.80;1.40;;;;;;;19.92;49.31;94189.56;10587733;28;20048;-57
2023/01/17 10:39:23;;;;;;;2.85;1.20;;;;;;;19.93;49.04;94191.09;10573152;28;20051;-57
2023/01/17 10:44:49;;;;;;;1.83;1.05;;;;;;;19.97;49.30;94187.59;10598204;28;20051;-57
2023/01/17 10:50:12;;;;;;;4.88;1.58;;;;;;;20.00;49.39;94173.34;10587964;28;20097;-57
2023/01/17 10:55:54;;;;;;;3.33;1.70;;;;;;;20.03;49.44;94169.84;10587779;28;20056;-57
2023/01/17 11:01:19;;;;;;;6.63;1.95;;;;;;;20.06;50.18;94152.84;10587505;28;20097;-57
2023/01/17 11:06:41;;;;;;;17.10;8.00;;;;;;;20.09;50.71;94150.13;10587380;28;20055;-57
2023/01/17 11:12:00;;;;;;;5.60;3.33;;;;;;;20.04;41.78;94147.06;10600784;28;20452;-57
2023/01/17 11:17:19;;;;;;;5.63;2.65;;;;;;;19.59;31.05;94144.06;10586010;28;20043;-57
2023/01/17 11:22:43;;;;;;;1.63;1.48;;;;;;;19.28;28.94;94130.19;10586758;28;20120;-57
2023/01/17 11:28:19;;;;;;;4.88;2.03;;;;;;;19.29;35.04;94131.75;10571394;28;20044;-57
2023/01/17 11:33:44;;;;;;;1.73;1.40;;;;;;;19.55;38.04;94128.63;10586308;28;20056;-57
2023/01/17 11:39:20;;;;;;;3.22;1.80;;;;;;;19.70;38.73;94136.72;10599586;28;20047;-57
2023/01/17 11:44:40;;;;;;;2.65;1.60;;;;;;;19.81;39.39;94126.66;10570008;28;20063;-57
2023/01/17 11:49:59;;;;;;;8.80;5.68;;;;;;;19.87;40.14;94125.09;10599260;28;20049;-57
2023/01/17 11:55:21;;;;;;;12.65;7.13;;;;;;;19.93;40.63;94131.66;10585088;28;20047;-57
2023/01/17 12:00:44;;;;;;;10.32;6.55;;;;;;;19.97;41.19;94130.88;10584996;28;20052;-57
2023/01/17 12:06:16;;;;;;;9.75;6.35;;;;;;;20.00;41.55;94125.44;10583456;28;20043;-57
2023/01/17 12:13:59;;;;;;;9.70;5.82;;;;;;;20.02;41.96;94101.50;10584841;28;20055;-57
2023/01/17 12:17:29;;;;;;;8.45;5.93;;;;;;;20.04;42.29;94109.22;10583910;28;20050;-57
2023/01/17 12:23:12;;;;;;;8.35;5.30;;;;;;;20.06;42.36;94117.72;10583741;28;20491;-57
2023/01/17 12:28:45;;;;;;;8.25;5.15;;;;;;;20.09;43.13;94128.53;10582894;28;20051;-57
2023/01/17 12:34:28;;;;;;;9.65;5.03;;;;;;;20.10;43.33;94138.16;10568895;28;20055;-57
2023/01/17 12:40:01;;;;;;;8.07;5.13;;;;;;;20.12;43.54;94125.00;10562182;28;20051;-56
2023/01/17 12:45:30;;;;;;;7.57;4.80;;;;;;;20.14;43.77;94116.53;10582733;28;20060;-56
2023/01/17 12:51:07;;;;;;;7.97;4.80;;;;;;;20.15;44.06;94096.44;10582507;28;20101;-57
2023/01/17 12:56:34;;;;;;;7.72;4.72;;;;;;;20.18;44.18;94103.00;10596558;28;20036;-57
2023/01/17 13:01:58;;;;;;;7.93;4.65;;;;;;;20.19;44.43;94142.38;10581096;28;20399;-57
2023/01/17 13:07:55;;;;;;;6.45;4.43;;;;;;;20.19;44.49;94156.66;10582587;28;20127;-57
2023/01/17 13:13:22;;;;;;;5.93;4.05;;;;;;;20.20;44.59;94138.50;10582359;28;20055;-57
2023/01/17 13:18:46;;;;;;;6.90;4.30;;;;;;;20.19;44.79;94148.56;10581950;28;20050;-56
2023/01/17 13:24:21;;;;;;;6.30;4.22;;;;;;;20.22;44.95;94163.22;10581337;28;20518;-56
2023/01/17 13:30:07;;;;;;;7.82;4.13;;;;;;;20.22;45.07;94168.63;10566182;28;20415;-57
2023/01/17 13:35:56;;;;;;;6.32;4.30;;;;;;;20.21;45.17;94159.75;10595250;28;20042;-57
2023/01/17 13:41:56;;;;;;;7.60;4.38;;;;;;;20.21;45.49;94165.16;10580530;28;20519;-57
2023/01/17 13:47:15;;;;;;;7.03;4.20;;;;;;;20.21;45.60;94178.66;10566042;28;20066;-57
2023/01/17 13:52:35;;;;;;;7.88;3.97;;;;;;;20.21;45.78;94184.06;10581331;28;20059;-57
2023/01/17 13:57:55;;;;;;;6.18;3.95;;;;;;;20.21;45.78;94167.06;10581168;28;20055;-57
2023/01/17 14:03:49;;;;;;;7.13;4.03;;;;;;;20.21;45.92;94167.84;10580990;28;20052;-57
2023/01/17 14:09:11;;;;;;;7.18;4.10;;;;;;;20.19;46.15;94167.47;10580277;28;20491;-57
2023/01/17 14:14:43;;;;;;;5.55;3.80;;;;;;;20.19;46.21;94163.97;10594510;28;20044;-57
2023/01/17 14:20:08;;;;;;;5.25;3.42;;;;;;;20.19;46.30;94163.97;10580685;28;20048;-57
2023/01/17 14:25:30;;;;;;;4.78;3.53;;;;;;;20.18;46.34;94162.47;10594101;28;20070;-57
2023/01/17 14:30:54;;;;;;;5.15;3.50;;;;;;;20.16;46.48;94160.16;10580611;28;20047;-57
2023/01/17 14:36:24;;;;;;;5.10;3.72;;;;;;;20.17;46.77;94147.38;10565370;28;20407;-57
2023/01/17 14:41:44;;;;;;;12.20;8.85;;;;;;;20.15;46.93;94145.09;10580191;28;20055;-57
2023/01/17 14:47:04;;;;;;;18.10;10.68;;;;;;;20.14;46.80;94141.59;10564159;28;20078;-56
2023/01/17 14:52:24;;;;;;;14.25;8.75;;;;;;;20.15;46.88;94137.00;10584832;28;20055;-56
2023/01/17 14:57:54;;;;;;;12.52;8.80;;;;;;;20.13;46.99;94131.19;10587092;28;20403;-57
2023/01/17 15:03:14;;;;;;;12.70;8.13;;;;;;;20.11;47.06;94123.50;10601118;28;20100;-57
2023/01/17 15:08:34;;;;;;;14.77;8.02;;;;;;;20.10;47.24;94123.88;10586294;28;20051;-56
2023/01/17 15:13:56;;;;;;;12.63;7.70;;;;;;;20.08;47.20;94113.44;10587002;28;20410;-57
2023/01/17 15:19:15;;;;;;;10.68;7.25;;;;;;;20.07;47.31;94120.03;10586293;28;20475;-57
2023/01/17 15:24:40;;;;;;;9.27;5.47;;;;;;;20.05;45.10;94116.94;10586800;27;20499;-57
2023/01/17 15:30:02;;;;;;;9.10;5.97;;;;;;;19.99;45.61;94113.09;10596380;27;20051;-57
2023/01/17 15:35:23;;;;;;;9.80;5.65;;;;;;;19.99;46.05;94104.97;10619322;27;20051;-57
2023/01/17 15:40:44;;;;;;;8.60;5.60;;;;;;;20.00;46.39;94105.78;10600485;27;20498;-57
2023/01/17 15:46:04;;;;;;;9.30;6.00;;;;;;;20.00;46.59;94094.97;10594058;27;20055;-56
2023/01/17 15:51:36;;;;;;;9.48;5.85;;;;;;;19.97;46.59;94077.59;10608489;27;20044;-57
2023/01/17 15:57:16;;;;;;;12.32;5.80;;;;;;;19.98;47.23;94075.69;10579973;27;20055;-58
2023/01/17 16:02:41;;;;;;;13.90;7.43;;;;;;;19.97;47.92;94074.13;10597821;27;20044;-65
2023/01/17 16:08:01;;;;;;;16.35;7.10;;;;;;;19.97;47.77;94068.72;10584425;28;20051;-57
2023/01/17 16:13:20;;;;;;;16.85;7.90;;;;;;;19.94;48.18;94062.94;10584600;28;20052;-57
2023/01/17 16:18:40;;;;;;;22.75;7.65;;;;;;;19.95;49.21;94059.09;10587567;27;20047;-57
2023/01/17 16:24:01;;;;;;;16.30;6.93;;;;;;;19.95;50.15;94069.09;10584147;28;20084;-58
2023/01/17 16:29:21;;;;;;;16.27;6.72;;;;;;;19.95;50.56;94056.38;10583982;28;20044;-57
2023/01/17 16:34:41;;;;;;;14.80;6.65;;;;;;;19.95;50.83;94042.88;10583730;28;20051;-61
2023/01/17 16:40:00;;;;;;;15.00;6.32;;;;;;;19.95;50.44;94053.69;10617777;27;20031;-62
2023/01/17 16:45:22;;;;;;;12.48;6.47;;;;;;;19.92;50.26;94051.75;10595722;27;20059;-60
2023/01/17 16:50:47;;;;;;;12.73;5.90;;;;;;;19.92;50.10;94048.28;10625555;27;20046;-59
2023/01/17 16:56:12;;;;;;;8.88;5.63;;;;;;;19.89;50.03;94049.06;10624353;27;20071;-63
2023/01/17 17:01:32;;;;;;;10.63;5.80;;;;;;;19.88;49.62;94056.41;10596685;27;20039;-57
2023/01/17 17:06:51;;;;;;;9.00;5.50;;;;;;;19.85;49.58;94054.47;10594541;27;20051;-58
2023/01/17 17:12:10;;;;;;;9.48;5.55;;;;;;;19.84;49.30;94058.34;10600994;27;20047;-57
2023/01/17 17:17:34;;;;;;;9.27;4.57;;;;;;;19.84;49.21;94052.19;10601062;27;20051;-57
2023/01/17 17:22:53;;;;;;;8.23;5.25;;;;;;;19.82;49.10;94049.09;10601054;27;20043;-56
2023/01/17 17:28:13;;;;;;;8.75;4.65;;;;;;;19.79;49.01;94056.03;10601271;27;20043;-59
2023/01/17 17:33:33;;;;;;;7.30;5.10;;;;;;;19.78;49.05;94054.53;10601639;27;20490;-57
2023/01/17 17:38:54;;;;;;;10.88;5.38;;;;;;;19.77;49.04;94046.81;10601892;27;20092;-61
2023/01/17 17:44:13;;;;;;;7.28;4.68;;;;;;;19.75;49.01;94042.56;10602063;27;20052;-61
2023/01/17 17:49:32;;;;;;;6.70;4.55;;;;;;;19.74;49.07;94032.91;10590109;27;20407;-66
2023/01/17 17:54:52;;;;;;;7.03;4.95;;;;;;;19.73;49.18;94031.38;10605983;27;20418;-66
2023/01/17 18:00:14;;;;;;;8.07;4.57;;;;;;;19.72;49.77;94029.84;10594392;28;20047;-57
2023/01/17 18:05:33;;;;;;;7.15;4.50;;;;;;;19.72;49.48;94034.47;10589860;28;20047;-56
2023/01/17 18:11:00;;;;;;;8.80;4.38;;;;;;;19.71;49.42;94022.09;10589837;28;20039;-57
2023/01/17 18:16:20;;;;;;;7.97;4.43;;;;;;;19.70;49.36;94031.38;10579928;28;20461;-61
2023/01/17 18:21:40;;;;;;;7.22;4.28;;;;;;;19.70;49.36;94031.38;10580628;28;20055;-60
2023/01/17 18:27:00;;;;;;;9.30;4.53;;;;;;;-146.19;100.00;65364.44;10587356;28;20048;-57
2023/01/17 18:32:20;;;;;;;6.88;4.47;;;;;;;19.66;49.82;94019.78;10588008;28;20059;-61
2023/01/17 18:37:40;;;;;;;11.30;4.20;;;;;;;19.64;49.83;94020.22;10588265;28;20043;-57
2023/01/17 18:42:59;;;;;;;7.93;4.72;;;;;;;19.64;50.10;94030.22;10587327;28;20048;-59
2023/01/17 18:48:18;;;;;;;24.40;16.77;;;;;;;19.16;42.25;94032.28;10587202;28;20051;-55
2023/01/17 18:53:39;;;;;;;14.13;10.10;;;;;;;19.24;45.33;94026.88;10585945;28;20088;-56
2023/01/17 18:58:59;;;;;;;22.25;10.60;;;;;;;19.31;45.50;94030.31;10601122;28;20502;-56
2023/01/17 19:04:18;;;;;;;17.60;10.45;;;;;;;19.37;46.24;94036.09;10600894;28;20085;-56
2023/01/17 19:09:37;;;;;;;17.55;12.25;;;;;;;19.39;44.98;94041.88;10587297;28;20052;-58
2023/01/17 19:14:56;;;;;;;15.45;9.98;;;;;;;19.39;44.84;94028.38;10587514;28;20059;-56
2023/01/17 19:20:17;;;;;;;17.73;10.23;;;;;;;19.41;46.29;94042.25;10587168;28;20055;-57
2023/01/17 19:25:37;;;;;;;13.60;9.80;;;;;;;19.42;46.82;94032.22;10585946;28;20120;-62
2023/01/17 19:31:08;;;;;;;17.83;9.77;;;;;;;19.43;47.25;94042.63;10585678;28;20052;-63
2023/01/17 19:36:32;;;;;;;14.77;9.20;;;;;;;19.45;47.67;94032.22;10584678;28;20057;-64
2023/01/17 19:41:53;;;;;;;14.63;9.38;;;;;;;19.46;48.13;94033.75;10585295;28;20056;-63
2023/01/17 19:47:13;;;;;;;19.60;9.05;;;;;;;19.49;48.30;94030.28;10584383;28;20074;-63
2023/01/17 19:52:36;;;;;;;13.70;8.77;;;;;;;19.49;48.87;94037.59;10584613;28;20051;-62
2023/01/17 19:57:57;;;;;;;13.15;8.60;;;;;;;19.51;48.93;94033.34;10583780;28;20055;-65
2023/01/17 20:03:16;;;;;;;11.90;8.50;;;;;;;19.50;49.03;94022.94;10597515;28;20044;-58
2023/01/17 20:08:37;;;;;;;12.60;8.07;;;;;;;19.50;49.29;94031.81;10584884;28;20048;-57
2023/01/17 20:13:57;;;;;;;10.23;7.90;;;;;;;19.51;49.53;94035.28;10584133;28;20051;-57
2023/01/17 20:19:17;;;;;;;11.38;8.13;;;;;;;19.52;49.51;94017.91;10596890;28;20046;-56
2023/01/17 20:24:36;;;;;;;11.90;8.13;;;;;;;19.52;49.51;94017.91;10583270;28;20059;-57
2023/01/17 20:29:56;;;;;;;10.75;7.50;;;;;;;19.54;49.81;94013.69;10583116;28;20052;-56
2023/01/17 20:35:16;;;;;;;14.18;7.55;;;;;;;19.56;49.89;94015.97;10583154;28;20063;-56
2023/01/17 20:40:35;;;;;;;11.80;6.72;;;;;;;19.56;49.71;93995.16;10582536;28;20054;-56
2023/01/17 20:45:56;;;;;;;9.68;6.60;;;;;;;19.58;49.63;93991.28;10567329;28;20064;-58
2023/01/17 20:51:17;;;;;;;8.13;6.25;;;;;;;-146.19;100.00;65364.44;10582530;28;20414;-58
2023/01/17 20:56:37;;;;;;;11.07;6.25;;;;;;;19.59;49.65;93998.22;10582944;28;20055;-57
2023/01/17 21:01:56;;;;;;;9.95;6.22;;;;;;;19.61;49.59;94009.41;10596171;28;20039;-57
2023/01/17 21:07:18;;;;;;;8.32;6.30;;;;;;;19.60;49.65;94000.53;10581779;28;20499;-56
2023/01/17 21:12:37;;;;;;;9.18;6.03;;;;;;;19.61;49.54;93998.59;10582348;28;20062;-55
2023/01/17 21:17:57;;;;;;;7.30;5.63;;;;;;;19.60;49.61;93997.84;10582039;28;20104;-56
2023/01/17 21:23:16;;;;;;;7.93;5.80;;;;;;;19.62;49.52;94002.84;10581669;28;20055;-56
2023/01/17 21:28:38;;;;;;;8.05;6.05;;;;;;;19.60;49.67;93991.66;10581226;28;20047;-56
2023/01/17 21:33:59;;;;;;;8.50;5.22;;;;;;;19.60;49.66;93989.75;10580407;28;20051;-56
2023/01/17 21:39:19;;;;;;;9.10;5.80;;;;;;;19.60;49.54;93988.94;10581421;28;20077;-56
2023/01/17 21:44:38;;;;;;;6.97;5.35;;;;;;;19.60;49.61;93980.84;10580754;28;20059;-56
2023/01/17 21:49:58;;;;;;;7.68;5.32;;;;;;;19.59;49.65;93982.78;10581331;28;20039;-56
2023/01/17 22:01:06;;;;;;;8.73;5.30;;;;;;;19.58;49.81;93985.88;10589702;28;20384;-56
2023/01/17 22:06:28;;;;;;;6.32;5.10;;;;;;;19.56;49.93;93987.06;10595077;28;20074;-56
2023/01/17 22:11:48;;;;;;;7.07;5.47;;;;;;;19.56;49.87;93988.97;10594938;28;20388;-56
2023/01/17 22:17:08;;;;;;;7.80;5.10;;;;;;;19.56;49.86;93994.38;10594756;28;20055;-56
2023/01/17 22:22:31;;;;;;;6.78;4.97;;;;;;;19.54;50.04;93992.06;10594206;28;20081;-56
2023/01/17 22:27:50;;;;;;;7.32;5.25;;;;;;;19.54;50.01;93997.47;10594458;28;20047;-56
2023/01/17 22:33:10;;;;;;;6.43;4.85;;;;;;;19.53;50.07;93997.88;10594223;28;20453;-56
2023/01/17 22:38:30;;;;;;;6.60;4.57;;;;;;;19.52;50.04;93991.69;10607561;28;20048;-56
2023/01/17 22:43:54;;;;;;;5.82;4.80;;;;;;;19.51;50.07;93982.06;10606875;28;20483;-56
2023/01/17 22:49:15;;;;;;;5.97;4.70;;;;;;;19.50;50.17;93974.34;10607816;28;20047;-56
2023/01/17 22:54:34;;;;;;;6.82;4.53;;;;;;;19.49;50.08;93968.16;10593756;28;20052;-56
2023/01/17 22:59:54;;;;;;;5.18;4.32;;;;;;;19.48;50.26;93972.03;10607603;28;20039;-56
2023/01/17 23:05:13;;;;;;;5.50;4.15;;;;;;;19.47;50.30;93959.69;10594123;28;20047;-56
2023/01/17 23:33:17;;;;;;;5.40;3.83;;;;;;;19.41;50.37;93949.72;10586476;28;20051;-56
2023/01/17 23:38:39;;;;;;;6.15;4.38;;;;;;;19.39;50.30;93944.69;10599690;28;20043;-56
2023/01/17 23:43:58;;;;;;;5.43;4.10;;;;;;;19.38;50.23;93943.13;10585571;28;20067;-56
2023/01/17 23:49:18;;;;;;;4.53;4.05;;;;;;;19.36;50.34;93946.22;10585890;28;20043;-56
2023/01/17 23:54:37;;;;;;;5.35;4.50;;;;;;;19.35;50.24;93939.31;10585633;28;20048;-56
2023/01/17 23:59:57;;;;;;;4.68;3.78;;;;;;;19.35;50.30;93939.31;10584593;28;20494;-56
